AEE2511 LGAV-LGIR
Flight info
| Callsign | AEE2511 |
|---|---|
| Flight time | 0h 42m |
| Altitude | 23000 |
| Route | KEA UL607 GIVIS T514 XAVIS |
| Aircraft | A21N/M-SDE2E3FGHIRWXY/LB1 |
Departure
| Time | 2026-04-30 19:58 |
|---|---|
| Airport | Athens Eleftherios Venizelos International Airport (LGAV) |
Arrival
| Time | 2026-04-30 20:41 |
|---|---|
| Airport | Heraklion International Nikos Kazantzakis Airport (LGIR) |
| Time | Latitude | Longitude | Altitude | Speed | Heading |
|---|---|---|---|---|---|
| 2026-04-30 19:27 | 37.93749 | 23.94972 | 306 ft | 0 kts | 307° |
| 2026-04-30 19:47 | 37.93733 | 23.94998 | 307 ft | 4 kts | 307° |
| 2026-04-30 19:47 | 37.93721 | 23.95019 | 307 ft | 4 kts | 301° |
| 2026-04-30 19:48 | 37.93712 | 23.95049 | 306 ft | 4 kts | 265° |
| 2026-04-30 19:48 | 37.93722 | 23.95076 | 306 ft | 4 kts | 220° |
| 2026-04-30 19:48 | 37.93726 | 23.95081 | 306 ft | 2 kts | 217° |
| 2026-04-30 19:51 | 37.93709 | 23.95064 | 307 ft | 6 kts | 220° |
| 2026-04-30 19:52 | 37.93657 | 23.95011 | 307 ft | 12 kts | 215° |
| 2026-04-30 19:52 | 37.93587 | 23.94947 | 307 ft | 13 kts | 216° |
| 2026-04-30 19:52 | 37.93511 | 23.94874 | 306 ft | 14 kts | 218° |
| 2026-04-30 19:52 | 37.93458 | 23.94848 | 306 ft | 8 kts | 153° |
| 2026-04-30 19:53 | 37.93423 | 23.94912 | 307 ft | 10 kts | 121° |
| 2026-04-30 19:53 | 37.93384 | 23.94988 | 305 ft | 11 kts | 132° |
| 2026-04-30 19:53 | 37.93314 | 23.94965 | 305 ft | 12 kts | 219° |
| 2026-04-30 19:53 | 37.93241 | 23.94891 | 305 ft | 15 kts | 217° |
| 2026-04-30 19:54 | 37.93155 | 23.94810 | 306 ft | 16 kts | 216° |
| 2026-04-30 19:54 | 37.93057 | 23.94720 | 306 ft | 18 kts | 217° |
| 2026-04-30 19:54 | 37.92951 | 23.94617 | 308 ft | 20 kts | 217° |
| 2026-04-30 19:54 | 37.92835 | 23.94505 | 309 ft | 22 kts | 217° |
| 2026-04-30 19:55 | 37.92708 | 23.94384 | 310 ft | 24 kts | 216° |
| 2026-04-30 19:55 | 37.92573 | 23.94258 | 310 ft | 25 kts | 216° |
| 2026-04-30 19:55 | 37.92483 | 23.94174 | 308 ft | 14 kts | 216° |
| 2026-04-30 19:55 | 37.92420 | 23.94172 | 309 ft | 10 kts | 129° |
| 2026-04-30 19:56 | 37.92412 | 23.94274 | 312 ft | 14 kts | 86° |
| 2026-04-30 19:56 | 37.92428 | 23.94398 | 313 ft | 12 kts | 45° |
| 2026-04-30 19:56 | 37.92447 | 23.94418 | 314 ft | 0 kts | 36° |
| 2026-04-30 19:57 | 37.92472 | 23.94441 | 314 ft | 21 kts | 36° |
| 2026-04-30 19:58 | 37.92810 | 23.94761 | 307 ft | 98 kts | 37° |
| 2026-04-30 19:58 | 37.93522 | 23.95437 | 291 ft | 155 kts | 36° |
| 2026-04-30 19:58 | 37.94375 | 23.96283 | 979 ft | 146 kts | 38° |
| 2026-04-30 19:58 | 37.95229 | 23.97119 | 1404 ft | 164 kts | 37° |
| 2026-04-30 19:59 | 37.96193 | 23.98018 | 1879 ft | 179 kts | 37° |
| 2026-04-30 19:59 | 37.97228 | 23.99002 | 2390 ft | 194 kts | 37° |
| 2026-04-30 19:59 | 37.99664 | 24.01332 | 3345 ft | 245 kts | 37° |
| 2026-04-30 20:00 | 38.01053 | 24.02669 | 4124 ft | 255 kts | 36° |
| 2026-04-30 20:00 | 38.02476 | 24.04045 | 5047 ft | 259 kts | 35° |
| 2026-04-30 20:00 | 38.03924 | 24.05438 | 5947 ft | 264 kts | 34° |
| 2026-04-30 20:00 | 38.05393 | 24.06857 | 6808 ft | 268 kts | 34° |
| 2026-04-30 20:01 | 38.08311 | 24.09912 | 8494 ft | 279 kts | 49° |
| 2026-04-30 20:01 | 38.09164 | 24.12130 | 9308 ft | 288 kts | 76° |
| 2026-04-30 20:01 | 38.09386 | 24.14690 | 9826 ft | 304 kts | 95° |
| 2026-04-30 20:02 | 38.07342 | 24.19433 | 10707 ft | 330 kts | 147° |
| 2026-04-30 20:02 | 38.05275 | 24.20824 | 11018 ft | 346 kts | 160° |
| 2026-04-30 20:03 | 38.00594 | 24.23356 | 11597 ft | 386 kts | 159° |
| 2026-04-30 20:03 | 37.98092 | 24.24800 | 11881 ft | 404 kts | 158° |
| 2026-04-30 20:03 | 37.95505 | 24.26329 | 12266 ft | 415 kts | 158° |
| 2026-04-30 20:03 | 37.92921 | 24.27883 | 12810 ft | 419 kts | 158° |
| 2026-04-30 20:04 | 37.90276 | 24.29470 | 13413 ft | 423 kts | 158° |
| 2026-04-30 20:04 | 37.87606 | 24.31068 | 13995 ft | 426 kts | 158° |
| 2026-04-30 20:04 | 37.84913 | 24.32686 | 14510 ft | 429 kts | 158° |
| 2026-04-30 20:05 | 37.79465 | 24.35912 | 15758 ft | 435 kts | 160° |
| 2026-04-30 20:05 | 37.76633 | 24.37261 | 16375 ft | 437 kts | 163° |
| 2026-04-30 20:05 | 37.70847 | 24.39822 | 17561 ft | 444 kts | 164° |
| 2026-04-30 20:06 | 37.67964 | 24.41113 | 18133 ft | 448 kts | 163° |
| 2026-04-30 20:06 | 37.65023 | 24.42443 | 18629 ft | 451 kts | 163° |
| 2026-04-30 20:06 | 37.62054 | 24.43793 | 19086 ft | 455 kts | 163° |
| 2026-04-30 20:06 | 37.59063 | 24.45143 | 19549 ft | 458 kts | 163° |
| 2026-04-30 20:07 | 37.56051 | 24.46507 | 20018 ft | 462 kts | 163° |
| 2026-04-30 20:07 | 37.53021 | 24.47880 | 20481 ft | 465 kts | 163° |
| 2026-04-30 20:07 | 37.46884 | 24.50652 | 21414 ft | 472 kts | 163° |
| 2026-04-30 20:08 | 37.43818 | 24.52030 | 21916 ft | 476 kts | 163° |
| 2026-04-30 20:08 | 37.40687 | 24.53436 | 22376 ft | 480 kts | 163° |
| 2026-04-30 20:08 | 37.37533 | 24.54848 | 22802 ft | 484 kts | 163° |
| 2026-04-30 20:08 | 37.34349 | 24.56279 | 23019 ft | 487 kts | 163° |
| 2026-04-30 20:09 | 37.31159 | 24.57709 | 23033 ft | 487 kts | 163° |
| 2026-04-30 20:09 | 37.31116 | 24.57728 | 23033 ft | 487 kts | 163° |
| 2026-04-30 20:09 | 37.26529 | 24.59776 | 23010 ft | 487 kts | 163° |
| 2026-04-30 20:10 | 37.20190 | 24.62611 | 22992 ft | 487 kts | 163° |
| 2026-04-30 20:10 | 37.18488 | 24.63372 | 22981 ft | 487 kts | 163° |
| 2026-04-30 20:11 | 37.14926 | 24.64965 | 22993 ft | 487 kts | 163° |
| 2026-04-30 20:11 | 37.14444 | 24.65181 | 22985 ft | 487 kts | 163° |
| 2026-04-30 20:11 | 37.11250 | 24.66603 | 22987 ft | 487 kts | 163° |
| 2026-04-30 20:12 | 37.04902 | 24.69429 | 22987 ft | 487 kts | 163° |
| 2026-04-30 20:12 | 37.01707 | 24.70853 | 22988 ft | 487 kts | 163° |
| 2026-04-30 20:12 | 36.98512 | 24.72275 | 22993 ft | 487 kts | 163° |
| 2026-04-30 20:13 | 36.96134 | 24.73332 | 22985 ft | 487 kts | 163° |
| 2026-04-30 20:13 | 36.94932 | 24.73866 | 22991 ft | 487 kts | 163° |
| 2026-04-30 20:13 | 36.91737 | 24.75281 | 22994 ft | 487 kts | 163° |
| 2026-04-30 20:13 | 36.88543 | 24.76695 | 22984 ft | 487 kts | 163° |
| 2026-04-30 20:14 | 36.85355 | 24.78103 | 22988 ft | 486 kts | 163° |
| 2026-04-30 20:14 | 36.82164 | 24.79508 | 22992 ft | 486 kts | 163° |
| 2026-04-30 20:14 | 36.78977 | 24.80910 | 22997 ft | 486 kts | 163° |
| 2026-04-30 20:14 | 36.75829 | 24.82298 | 22994 ft | 486 kts | 163° |
| 2026-04-30 20:15 | 36.72644 | 24.83704 | 22993 ft | 486 kts | 163° |
| 2026-04-30 20:15 | 36.69453 | 24.85113 | 22998 ft | 486 kts | 163° |
| 2026-04-30 20:15 | 36.66267 | 24.86518 | 22999 ft | 486 kts | 163° |
| 2026-04-30 20:15 | 36.63082 | 24.87920 | 22986 ft | 485 kts | 163° |
| 2026-04-30 20:16 | 36.59901 | 24.89320 | 22994 ft | 484 kts | 163° |
| 2026-04-30 20:16 | 36.56723 | 24.90722 | 22994 ft | 484 kts | 163° |
| 2026-04-30 20:16 | 36.53548 | 24.92124 | 22996 ft | 484 kts | 163° |
| 2026-04-30 20:16 | 36.50415 | 24.93497 | 22997 ft | 484 kts | 163° |
| 2026-04-30 20:17 | 36.47264 | 24.94882 | 22629 ft | 480 kts | 163° |
| 2026-04-30 20:17 | 36.44108 | 24.96261 | 22273 ft | 480 kts | 163° |
| 2026-04-30 20:17 | 36.40971 | 24.97631 | 21978 ft | 478 kts | 163° |
| 2026-04-30 20:17 | 36.37841 | 24.99002 | 21638 ft | 476 kts | 163° |
| 2026-04-30 20:18 | 36.34742 | 25.00357 | 21151 ft | 469 kts | 163° |
| 2026-04-30 20:18 | 36.31691 | 25.01690 | 20521 ft | 460 kts | 163° |
| 2026-04-30 20:18 | 36.28696 | 25.02997 | 19861 ft | 453 kts | 163° |
| 2026-04-30 20:18 | 36.25748 | 25.04282 | 19218 ft | 446 kts | 163° |
| 2026-04-30 20:19 | 36.22877 | 25.05531 | 18605 ft | 440 kts | 163° |
| 2026-04-30 20:19 | 36.20002 | 25.06779 | 17915 ft | 437 kts | 163° |
| 2026-04-30 20:19 | 36.17142 | 25.08024 | 17181 ft | 434 kts | 163° |
| 2026-04-30 20:19 | 36.14308 | 25.09254 | 16554 ft | 429 kts | 163° |
| 2026-04-30 20:20 | 36.11512 | 25.10468 | 15991 ft | 424 kts | 163° |
| 2026-04-30 20:20 | 36.08747 | 25.11668 | 15448 ft | 419 kts | 163° |
| 2026-04-30 20:20 | 36.06007 | 25.12854 | 14938 ft | 414 kts | 163° |
| 2026-04-30 20:20 | 36.03305 | 25.14024 | 14486 ft | 411 kts | 163° |
| 2026-04-30 20:21 | 36.00611 | 25.15186 | 14062 ft | 409 kts | 163° |
| 2026-04-30 20:21 | 35.97964 | 25.16330 | 13628 ft | 408 kts | 163° |
| 2026-04-30 20:21 | 35.95292 | 25.17484 | 13109 ft | 405 kts | 163° |
| 2026-04-30 20:21 | 35.92648 | 25.18626 | 12534 ft | 401 kts | 163° |
| 2026-04-30 20:22 | 35.90021 | 25.19761 | 12025 ft | 395 kts | 162° |
| 2026-04-30 20:22 | 35.87472 | 25.20861 | 11689 ft | 381 kts | 163° |
| 2026-04-30 20:22 | 35.85022 | 25.21919 | 11442 ft | 366 kts | 163° |
| 2026-04-30 20:22 | 35.82667 | 25.22934 | 11223 ft | 351 kts | 163° |
| 2026-04-30 20:23 | 35.80409 | 25.23907 | 11033 ft | 336 kts | 163° |
| 2026-04-30 20:23 | 35.78275 | 25.24822 | 10847 ft | 323 kts | 163° |
| 2026-04-30 20:23 | 35.76191 | 25.25716 | 10609 ft | 312 kts | 163° |
| 2026-04-30 20:23 | 35.74142 | 25.26593 | 10147 ft | 311 kts | 163° |
| 2026-04-30 20:24 | 35.72102 | 25.27466 | 9663 ft | 310 kts | 163° |
| 2026-04-30 20:24 | 35.70078 | 25.28334 | 9212 ft | 307 kts | 163° |
| 2026-04-30 20:24 | 35.68067 | 25.29196 | 8794 ft | 303 kts | 163° |
| 2026-04-30 20:24 | 35.66096 | 25.30041 | 8462 ft | 298 kts | 163° |
| 2026-04-30 20:25 | 35.62193 | 25.31712 | 7991 ft | 296 kts | 163° |
| 2026-04-30 20:25 | 35.60246 | 25.32545 | 7983 ft | 296 kts | 163° |
| 2026-04-30 20:26 | 35.56378 | 25.34197 | 8001 ft | 296 kts | 163° |
| 2026-04-30 20:26 | 35.52484 | 25.35862 | 8011 ft | 296 kts | 163° |
| 2026-04-30 20:26 | 35.50537 | 25.36694 | 8013 ft | 296 kts | 163° |
| 2026-04-30 20:27 | 35.46700 | 25.38333 | 7758 ft | 285 kts | 163° |
| 2026-04-30 20:27 | 35.42997 | 25.39557 | 7186 ft | 265 kts | 189° |
| 2026-04-30 20:28 | 35.40089 | 25.37460 | 6703 ft | 244 kts | 239° |
| 2026-04-30 20:28 | 35.39354 | 25.33591 | 6223 ft | 236 kts | 281° |
| 2026-04-30 20:29 | 35.40895 | 25.30126 | 5958 ft | 237 kts | 316° |
| 2026-04-30 20:30 | 35.45513 | 25.27962 | 5994 ft | 241 kts | 339° |
| 2026-04-30 20:30 | 35.50277 | 25.26021 | 5660 ft | 240 kts | 338° |
| 2026-04-30 20:31 | 35.55169 | 25.25317 | 4950 ft | 251 kts | 20° |
| 2026-04-30 20:32 | 35.57757 | 25.30598 | 4305 ft | 259 kts | 93° |
| 2026-04-30 20:32 | 35.56472 | 25.34619 | 4034 ft | 263 kts | 136° |
| 2026-04-30 20:33 | 35.54941 | 25.35818 | 3931 ft | 263 kts | 162° |
| 2026-04-30 20:33 | 35.51428 | 25.36971 | 3751 ft | 261 kts | 168° |
| 2026-04-30 20:33 | 35.49670 | 25.37526 | 3646 ft | 261 kts | 167° |
| 2026-04-30 20:34 | 35.46192 | 25.38669 | 3439 ft | 260 kts | 169° |
| 2026-04-30 20:34 | 35.42680 | 25.38315 | 3238 ft | 249 kts | 194° |
| 2026-04-30 20:35 | 35.41034 | 25.37884 | 3118 ft | 234 kts | 194° |
| 2026-04-30 20:35 | 35.39485 | 25.37485 | 2985 ft | 221 kts | 193° |
| 2026-04-30 20:35 | 35.36767 | 25.36806 | 2926 ft | 176 kts | 193° |
| 2026-04-30 20:36 | 35.35668 | 25.36535 | 2950 ft | 146 kts | 193° |
| 2026-04-30 20:36 | 35.34685 | 25.36293 | 2947 ft | 143 kts | 193° |
| 2026-04-30 20:36 | 35.32927 | 25.35426 | 2643 ft | 139 kts | 242° |
| 2026-04-30 20:37 | 35.32793 | 25.34282 | 2456 ft | 137 kts | 278° |
| 2026-04-30 20:37 | 35.32919 | 25.33126 | 2251 ft | 137 kts | 276° |
| 2026-04-30 20:37 | 35.32996 | 25.31968 | 2045 ft | 136 kts | 275° |
| 2026-04-30 20:37 | 35.33079 | 25.30816 | 1973 ft | 136 kts | 275° |
| 2026-04-30 20:38 | 35.33159 | 25.29669 | 1968 ft | 136 kts | 275° |
| 2026-04-30 20:38 | 35.33239 | 25.28525 | 1794 ft | 134 kts | 275° |
| 2026-04-30 20:38 | 35.33319 | 25.27384 | 1577 ft | 134 kts | 274° |
| 2026-04-30 20:39 | 35.33475 | 25.25122 | 1175 ft | 134 kts | 273° |
| 2026-04-30 20:39 | 35.33554 | 25.23978 | 969 ft | 135 kts | 272° |
| 2026-04-30 20:39 | 35.33636 | 25.22833 | 771 ft | 135 kts | 272° |
| 2026-04-30 20:40 | 35.33812 | 25.20542 | 412 ft | 135 kts | 271° |
| 2026-04-30 20:40 | 35.33884 | 25.19394 | 177 ft | 135 kts | 272° |
| 2026-04-30 20:40 | 35.33961 | 25.18281 | 99 ft | 123 kts | 271° |
| 2026-04-30 20:41 | 35.34026 | 25.17171 | 97 ft | 20 kts | 254° |
| 2026-04-30 20:41 | 35.33962 | 25.17043 | 97 ft | 11 kts | 185° |
| 2026-04-30 20:41 | 35.33937 | 25.17120 | 95 ft | 12 kts | 94° |
| 2026-04-30 20:41 | 35.33930 | 25.17232 | 96 ft | 14 kts | 94° |
| 2026-04-30 20:42 | 35.33922 | 25.17364 | 96 ft | 17 kts | 95° |
| 2026-04-30 20:42 | 35.33910 | 25.17495 | 99 ft | 11 kts | 116° |
| 2026-04-30 20:42 | 35.33800 | 25.17479 | 96 ft | 6 kts | 241° |
| 2026-04-30 20:43 | 35.33807 | 25.17433 | 96 ft | 3 kts | 310° |
| 2026-04-30 20:43 | 35.33820 | 25.17417 | 97 ft | 2 kts | 316° |
| 2026-04-30 20:43 | 35.33820 | 25.17416 | 97 ft | 0 kts | 316° |